KACB/ACB METAR and TAF weather

Enter ICAO airport designator
Station Type Date Time Source
KACB METAR 2022/12/08 11:35 UTC NOAA

KACB 081135Z AUTO 02005KT 10SM OVC018 M04/M07 A3046 RMK AO2 T10371070


Station Type Date Time Source
KACB Decoded METAR 2022/12/08 11:35 UTC NOAA

Bellaire, Antrim County Airport, MI, United States (KACB) 44-59-18N 085-11-54W
Dec 08, 2022 - 06:35 AM EST / 2022.12.08 1135 UTC
Wind: from the NNE (020 degrees) at 6 MPH (5 KT):0
Visibility: 10 mile(s):0
Sky conditions: overcast
Temperature: 25.3 F (-3.7 C)
Windchill: 17 F (-8 C):1
Dew Point: 19.4 F (-7.0 C)
Relative Humidity: 77%
Pressure (altimeter): 30.46 in. Hg (1031 hPa)
ob: KACB 081135Z AUTO 02005KT 10SM OVC018 M04/M07 A3046 RMK AO2 T10371070
cycle: 11

Station Type Date Time Source
KACB TAF UTC NOAA

Error!

Example: see airport list